PWSweather.com
Personal Weather Stations
Station Observations
CARNOUSTIE
Pambride, CarnoustieGB DD7 6DY

PambrideCarnoustieGB DD7 6DY

Lat: 56.50889, Lon: -2.7051

Elevation: 105

Station Type: Oregon Scientific WMR200

Latest ConditionsUpdated 9:10:04 PM GMT Thursday, Sep 21, 2017
Currently Today's Max Today's Min Today's Average
Temperature 47.1°F8.4°C 60.0°F15.6°C 47.1°F8.4°C 55.2°F12.9°C
Dew Point 46.6°F8.1°C 58.3°F14.6°C 46.6°F8.1°C 54.6°F12.6°C
Winds Calm Calm 6.7 mph NNE10.8 kmh NNE - 1.2 mph 1.9 kmh
Wind Gusts -- 10.9 mph17.5 kmh - -
Humidity 98% 98% 91% 98%
Pressure 29.88 in1011.9 mb 29.88 in1011.9 mb 29.65 in1004.1 mb -
Precipitation - 0.37 in9.4 mm - -
Hour Temp Dew Point Humidity Winds Wind Gusts Pressure Precip Precip Rate Daily Precip Total
09:10 PM 47.1°F8.4°C 46.6°F8.1°C 98% Calm Calm -- 29.88 in1011.9 mb - 0.00 in0.0 mm 0.37 in9.4 mm
09:00 PM 47.1°F8.4°C 46.6°F8.1°C 98% Calm Calm -- 29.88 in1011.9 mb - 0.00 in0.0 mm 0.37 in9.4 mm
08:50 PM 47.3°F8.5°C 46.8°F8.2°C 98% Calm Calm -- 29.88 in1011.9 mb - 0.00 in0.0 mm 0.37 in9.4 mm
08:40 PM 47.3°F8.5°C 46.8°F8.2°C 98% Calm Calm -- 29.86 in1011.2 mb - 0.00 in0.0 mm 0.37 in9.4 mm
08:30 PM 47.3°F8.5°C 46.8°F8.2°C 98% Calm Calm -- 29.86 in1011.2 mb - 0.00 in0.0 mm 0.37 in9.4 mm
08:20 PM 47.7°F8.7°C 47.1°F8.4°C 98% Calm Calm -- 29.86 in1011.2 mb - 0.00 in0.0 mm 0.37 in9.4 mm
08:10 PM 48.0°F8.9°C 47.5°F8.6°C 98% Calm Calm -- 29.86 in1011.2 mb - 0.00 in0.0 mm 0.37 in9.4 mm
08:00 PM 48.0°F8.9°C 47.5°F8.6°C 98% Calm Calm -- 29.86 in1011.2 mb - 0.00 in0.0 mm 0.37 in9.4 mm
07:50 PM 48.3°F9.1°C 47.7°F8.7°C 98% Calm Calm -- 29.86 in1011.2 mb - 0.00 in0.0 mm 0.37 in9.4 mm
07:40 PM 48.7°F9.3°C 48.2°F9.0°C 98% Calm Calm -- 29.86 in1011.2 mb - 0.00 in0.0 mm 0.37 in9.4 mm
07:30 PM 49.3°F9.6°C 48.7°F9.3°C 98% Calm Calm -- 29.86 in1011.2 mb - 0.00 in0.0 mm 0.37 in9.4 mm
07:20 PM 49.5°F9.7°C 48.9°F9.4°C 98% Calm Calm -- 29.86 in1011.2 mb - 0.00 in0.0 mm 0.37 in9.4 mm
07:10 PM 50.3°F10.2°C 49.7°F9.8°C 98% Calm Calm -- 29.86 in1011.2 mb - 0.00 in0.0 mm 0.37 in9.4 mm
07:00 PM 51.3°F10.7°C 50.7°F10.4°C 98% Calm Calm -- 29.86 in1011.2 mb - 0.00 in0.0 mm 0.37 in9.4 mm
06:50 PM 52.2°F11.2°C 51.6°F10.9°C 98% Calm Calm -- 29.82 in1009.8 mb - 0.00 in0.0 mm 0.37 in9.4 mm
06:40 PM 52.9°F11.6°C 52.1°F11.2°C 97% Calm Calm -- 29.82 in1009.8 mb - 0.00 in0.0 mm 0.37 in9.4 mm
06:30 PM 53.4°F11.9°C 52.6°F11.4°C 97% Calm Calm -- 29.82 in1009.8 mb - 0.00 in0.0 mm 0.37 in9.4 mm
06:20 PM 54.4°F12.4°C 53.3°F11.8°C 96% Calm Calm -- 29.82 in1009.8 mb - 0.00 in0.0 mm 0.37 in9.4 mm
06:10 PM 55.0°F12.8°C 53.6°F12.0°C 95% Calm Calm -- 29.80 in1009.1 mb - 0.00 in0.0 mm 0.37 in9.4 mm
06:00 PM 56.1°F13.4°C 54.4°F12.4°C 94% Calm Calm -- 29.80 in1009.1 mb - 0.00 in0.0 mm 0.37 in9.4 mm
05:50 PM 57.2°F14.0°C 54.9°F12.7°C 92% Calm Calm -- 29.80 in1009.1 mb - 0.00 in0.0 mm 0.37 in9.4 mm
05:40 PM 58.4°F14.7°C 55.8°F13.2°C 91% 1.2 mph WNW1.9 kmh WNW -- 29.77 in1008.1 mb - 0.00 in0.0 mm 0.37 in9.4 mm
05:30 PM 60.0°F15.6°C 57.4°F14.1°C 91% 1.5 mph NW2.4 kmh NW 3.6 mph5.8 kmh 29.77 in1008.1 mb - 0.00 in0.0 mm 0.37 in9.4 mm
05:20 PM 58.9°F14.9°C 56.6°F13.7°C 92% 5.6 mph WNW9.0 kmh WNW 7.4 mph11.9 kmh 29.77 in1008.1 mb - 0.00 in0.0 mm 0.37 in9.4 mm
05:10 PM 57.7°F14.3°C 56.3°F13.5°C 95% 6.6 mph WNW10.6 kmh WNW 10.9 mph17.5 kmh 29.80 in1009.1 mb - 0.00 in0.0 mm 0.37 in9.4 mm
05:00 PM 56.7°F13.7°C 56.1°F13.4°C 98% 3.9 mph W6.3 kmh W 5.6 mph9.0 kmh 29.80 in1009.1 mb - 0.00 in0.0 mm 0.37 in9.4 mm
04:50 PM 56.5°F13.6°C 55.9°F13.3°C 98% 1.1 mph W1.8 kmh W -- 29.80 in1009.1 mb - 0.00 in0.0 mm 0.37 in9.4 mm
04:40 PM 56.1°F13.4°C 55.6°F13.1°C 98% 2.5 mph W4.0 kmh W 5.6 mph9.0 kmh 29.77 in1008.1 mb - 0.00 in0.0 mm 0.37 in9.4 mm
04:30 PM 56.3°F13.5°C 55.7°F13.2°C 98% 5.1 mph W8.2 kmh W 10.7 mph17.2 kmh 29.77 in1008.1 mb - 0.00 in0.0 mm 0.37 in9.4 mm
04:20 PM 56.5°F13.6°C 55.9°F13.3°C 98% 2.8 mph WSW4.5 kmh WSW 5.4 mph8.7 kmh 29.77 in1008.1 mb - 0.00 in0.0 mm 0.37 in9.4 mm
04:10 PM 56.7°F13.7°C 56.1°F13.4°C 98% 4.2 mph W6.8 kmh W 10.7 mph17.2 kmh 29.77 in1008.1 mb - 0.00 in0.0 mm 0.37 in9.4 mm
04:00 PM 56.9°F13.8°C 56.3°F13.5°C 98% 0.6 mph WSW1.0 kmh WSW -- 29.77 in1008.1 mb - 0.00 in0.0 mm 0.37 in9.4 mm
03:50 PM 56.8°F13.8°C 56.3°F13.5°C 98% 1.9 mph W3.1 kmh W 6.2 mph10.0 kmh 29.77 in1008.1 mb - 0.00 in0.0 mm 0.37 in9.4 mm
03:40 PM 56.4°F13.6°C 55.8°F13.2°C 98% 2.8 mph W4.5 kmh W 4.0 mph6.4 kmh 29.77 in1008.1 mb - 0.00 in0.0 mm 0.37 in9.4 mm
03:30 PM 56.3°F13.5°C 55.7°F13.2°C 98% Calm Calm -- 29.77 in1008.1 mb - 0.00 in0.0 mm 0.37 in9.4 mm
03:20 PM 56.3°F13.5°C 55.7°F13.2°C 98% Calm Calm 3.3 mph5.3 kmh 29.74 in1007.1 mb - 0.00 in0.0 mm 0.37 in9.4 mm
03:10 PM 56.3°F13.5°C 55.7°F13.2°C 98% Calm Calm 8.5 mph13.7 kmh 29.74 in1007.1 mb - 0.00 in0.0 mm 0.37 in9.4 mm
03:00 PM 57.5°F14.2°C 56.9°F13.8°C 98% 3.3 mph WNW5.3 kmh WNW 3.6 mph5.8 kmh 29.74 in1007.1 mb - 0.00 in0.0 mm 0.37 in9.4 mm
02:50 PM 58.4°F14.7°C 57.9°F14.4°C 98% 1.1 mph WSW1.8 kmh WSW 3.8 mph6.1 kmh 29.74 in1007.1 mb - 0.00 in0.0 mm 0.37 in9.4 mm
02:40 PM 58.6°F14.8°C 58.1°F14.5°C 98% Calm Calm 2.2 mph3.5 kmh 29.74 in1007.1 mb - 0.00 in0.0 mm 0.37 in9.4 mm
02:30 PM 58.1°F14.5°C 57.5°F14.2°C 98% 0.7 mph SW1.1 kmh SW 3.6 mph5.8 kmh 29.74 in1007.1 mb - 0.00 in0.0 mm 0.37 in9.4 mm
02:20 PM 58.5°F14.7°C 57.9°F14.4°C 98% Calm Calm 2.6 mph4.2 kmh 29.71 in1006.1 mb - 0.00 in0.0 mm 0.37 in9.4 mm
02:10 PM 58.1°F14.5°C 57.5°F14.2°C 98% Calm Calm -- 29.74 in1007.1 mb - 0.00 in0.0 mm 0.37 in9.4 mm
02:00 PM 57.6°F14.2°C 57.1°F13.9°C 98% 0.9 mph SSE1.4 kmh SSE 1.2 mph1.9 kmh 29.74 in1007.1 mb - 0.00 in0.0 mm 0.37 in9.4 mm
01:50 PM 57.4°F14.1°C 56.8°F13.8°C 98% 0.8 mph S1.3 kmh S 2.2 mph3.5 kmh 29.74 in1007.1 mb - 0.00 in0.0 mm 0.37 in9.4 mm
01:40 PM 57.7°F14.3°C 57.2°F14.0°C 98% 1.0 mph S1.6 kmh S 1.4 mph2.3 kmh 29.71 in1006.1 mb - 0.00 in0.0 mm 0.37 in9.4 mm
01:30 PM 57.9°F14.4°C 57.4°F14.1°C 98% 0.8 mph SSW1.3 kmh SSW 3.1 mph5.0 kmh 29.71 in1006.1 mb - 0.02 in0.5 mm 0.37 in9.4 mm
01:20 PM 57.6°F14.2°C 57.0°F13.9°C 98% 0.9 mph S1.4 kmh S 3.3 mph5.3 kmh 29.74 in1007.1 mb - 0.00 in0.0 mm 0.35 in8.9 mm
01:10 PM 57.6°F14.2°C 57.0°F13.9°C 98% Calm Calm -- 29.74 in1007.1 mb - 0.00 in0.0 mm 0.35 in8.9 mm
01:00 PM 57.9°F14.4°C 57.4°F14.1°C 98% Calm Calm 0.9 mph1.4 kmh 29.74 in1007.1 mb - 0.00 in0.0 mm 0.35 in8.9 mm
12:50 PM 58.3°F14.6°C 57.7°F14.3°C 98% Calm Calm -- 29.74 in1007.1 mb - 0.00 in0.0 mm 0.35 in8.9 mm
12:40 PM 58.3°F14.6°C 57.8°F14.3°C 98% Calm Calm -- 29.74 in1007.1 mb - 0.00 in0.0 mm 0.35 in8.9 mm
12:30 PM 58.6°F14.8°C 58.1°F14.5°C 98% Calm Calm -- 29.74 in1007.1 mb - 0.00 in0.0 mm 0.35 in8.9 mm
12:20 PM 58.8°F14.9°C 58.3°F14.6°C 98% Calm Calm -- 29.74 in1007.1 mb - 0.00 in0.0 mm 0.35 in8.9 mm
12:10 PM 57.6°F14.2°C 57.0°F13.9°C 98% Calm Calm -- 29.71 in1006.1 mb - 0.00 in0.0 mm 0.35 in8.9 mm
12:00 PM 57.0°F13.9°C 56.5°F13.6°C 98% Calm Calm -- 29.71 in1006.1 mb - 0.00 in0.0 mm 0.35 in8.9 mm
11:50 AM 56.8°F13.8°C 56.3°F13.5°C 98% Calm Calm -- 29.74 in1007.1 mb - 0.00 in0.0 mm 0.35 in8.9 mm
11:40 AM 56.7°F13.7°C 56.1°F13.4°C 98% Calm Calm -- 29.74 in1007.1 mb - 0.00 in0.0 mm 0.35 in8.9 mm
11:30 AM 56.8°F13.8°C 56.3°F13.5°C 98% Calm Calm -- 29.74 in1007.1 mb - 0.00 in0.0 mm 0.35 in8.9 mm
11:20 AM 57.0°F13.9°C 56.5°F13.6°C 98% Calm Calm -- 29.71 in1006.1 mb - 0.00 in0.0 mm 0.35 in8.9 mm
11:10 AM 56.8°F13.8°C 56.3°F13.5°C 98% Calm Calm -- 29.71 in1006.1 mb - 0.00 in0.0 mm 0.35 in8.9 mm
11:00 AM 56.7°F13.7°C 56.1°F13.4°C 98% Calm Calm 2.2 mph3.5 kmh 29.71 in1006.1 mb - 0.00 in0.0 mm 0.35 in8.9 mm
10:50 AM 56.7°F13.7°C 56.1°F13.4°C 98% Calm Calm -- 29.71 in1006.1 mb - 0.00 in0.0 mm 0.35 in8.9 mm
10:40 AM 56.7°F13.7°C 56.1°F13.4°C 98% 0.5 mph N0.8 kmh N -- 29.71 in1006.1 mb - 0.00 in0.0 mm 0.35 in8.9 mm
10:30 AM 56.8°F13.8°C 56.3°F13.5°C 98% 0.9 mph N1.4 kmh N 3.6 mph5.8 kmh 29.71 in1006.1 mb - 0.00 in0.0 mm 0.35 in8.9 mm
10:20 AM 56.8°F13.8°C 56.3°F13.5°C 98% 3.3 mph NE5.3 kmh NE 5.9 mph9.5 kmh 29.71 in1006.1 mb - 0.00 in0.0 mm 0.35 in8.9 mm
10:10 AM 56.8°F13.8°C 56.3°F13.5°C 98% Calm Calm 5.6 mph9.0 kmh 29.71 in1006.1 mb - 0.00 in0.0 mm 0.35 in8.9 mm
10:00 AM 56.4°F13.6°C 55.8°F13.2°C 98% 0.3 mph NE0.5 kmh NE 3.3 mph5.3 kmh 29.71 in1006.1 mb - 0.00 in0.0 mm 0.35 in8.9 mm
09:50 AM 55.9°F13.3°C 55.4°F13.0°C 98% 3.2 mph N5.1 kmh N 5.4 mph8.7 kmh 29.71 in1006.1 mb - 0.00 in0.0 mm 0.35 in8.9 mm
09:40 AM 55.4°F13.0°C 54.9°F12.7°C 98% 4.1 mph NE6.6 kmh NE 6.0 mph9.7 kmh 29.71 in1006.1 mb - 0.00 in0.0 mm 0.35 in8.9 mm
09:30 AM 55.2°F12.9°C 54.7°F12.6°C 98% 3.6 mph NNE5.8 kmh NNE 6.4 mph10.3 kmh 29.71 in1006.1 mb - 0.00 in0.0 mm 0.35 in8.9 mm
09:20 AM 55.0°F12.8°C 54.5°F12.5°C 98% 1.4 mph NNE2.3 kmh NNE 0.9 mph1.4 kmh 29.71 in1006.1 mb - 0.00 in0.0 mm 0.35 in8.9 mm
09:10 AM 54.5°F12.5°C 53.9°F12.2°C 98% Calm Calm 4.5 mph7.2 kmh 29.71 in1006.1 mb - 0.02 in0.5 mm 0.35 in8.9 mm
09:00 AM 54.1°F12.3°C 53.6°F12.0°C 98% 4.3 mph NE6.9 kmh NE 6.4 mph10.3 kmh 29.71 in1006.1 mb - 0.00 in0.0 mm 0.33 in8.4 mm
08:50 AM 54.0°F12.2°C 53.4°F11.9°C 98% 5.7 mph NNE9.2 kmh NNE 7.4 mph11.9 kmh 29.71 in1006.1 mb - 0.00 in0.0 mm 0.33 in8.4 mm
08:40 AM 53.8°F12.1°C 53.2°F11.8°C 98% 5.4 mph N8.7 kmh N 7.4 mph11.9 kmh 29.71 in1006.1 mb - 0.00 in0.0 mm 0.33 in8.4 mm
08:30 AM 53.8°F12.1°C 53.2°F11.8°C 98% 6.7 mph NNE10.8 kmh NNE 7.4 mph11.9 kmh 29.71 in1006.1 mb - 0.00 in0.0 mm 0.33 in8.4 mm
08:20 AM 53.8°F12.1°C 53.2°F11.8°C 98% 5.2 mph NE8.4 kmh NE 7.4 mph11.9 kmh 29.71 in1006.1 mb - 0.02 in0.5 mm 0.33 in8.4 mm
08:10 AM 54.0°F12.2°C 53.4°F11.9°C 98% 3.9 mph NNE6.3 kmh NNE 8.1 mph13.0 kmh 29.68 in1005.1 mb - 0.02 in0.5 mm 0.32 in8.1 mm
08:00 AM 54.1°F12.3°C 53.6°F12.0°C 98% 2.2 mph NNE3.5 kmh NNE 5.9 mph9.5 kmh 29.68 in1005.1 mb - 0.00 in0.0 mm 0.30 in7.6 mm
07:50 AM 54.5°F12.5°C 53.9°F12.2°C 98% 3.9 mph N6.3 kmh N 6.0 mph9.7 kmh 29.68 in1005.1 mb - 0.04 in1.0 mm 0.30 in7.6 mm
07:40 AM 54.3°F12.4°C 53.8°F12.1°C 98% Calm Calm 1.4 mph2.3 kmh 29.71 in1006.1 mb - 0.04 in1.0 mm 0.28 in7.1 mm
07:30 AM 54.1°F12.3°C 53.6°F12.0°C 98% Calm Calm -- 29.71 in1006.1 mb - 0.02 in0.5 mm 0.24 in6.1 mm
07:20 AM 54.3°F12.4°C 53.8°F12.1°C 98% Calm Calm -- 29.68 in1005.1 mb - 0.03 in0.8 mm 0.23 in5.8 mm
07:10 AM 54.1°F12.3°C 53.6°F12.0°C 98% Calm Calm -- 29.68 in1005.1 mb - 0.02 in0.5 mm 0.19 in4.8 mm
07:00 AM 54.1°F12.3°C 53.6°F12.0°C 98% 0.8 mph N1.3 kmh N 3.8 mph6.1 kmh 29.68 in1005.1 mb - 0.02 in0.5 mm 0.18 in4.6 mm
06:50 AM 54.1°F12.3°C 53.6°F12.0°C 98% 0.3 mph NNE0.5 kmh NNE 1.6 mph2.6 kmh 29.68 in1005.1 mb - 0.02 in0.5 mm 0.16 in4.1 mm
06:40 AM 54.1°F12.3°C 53.6°F12.0°C 98% Calm Calm -- 29.71 in1006.1 mb - 0.04 in1.0 mm 0.14 in3.6 mm
06:30 AM 54.1°F12.3°C 53.6°F12.0°C 98% Calm Calm -- 29.71 in1006.1 mb - 0.03 in0.8 mm 0.11 in2.8 mm
06:20 AM 54.1°F12.3°C 53.6°F12.0°C 98% Calm Calm -- 29.68 in1005.1 mb - 0.03 in0.8 mm 0.09 in2.3 mm
06:10 AM 54.1°F12.3°C 53.6°F12.0°C 98% Calm Calm 1.2 mph1.9 kmh 29.68 in1005.1 mb - 0.00 in0.0 mm 0.05 in1.3 mm
06:00 AM 54.1°F12.3°C 53.6°F12.0°C 98% Calm Calm -- 29.68 in1005.1 mb - 0.02 in0.5 mm 0.05 in1.3 mm
05:50 AM 54.3°F12.4°C 53.8°F12.1°C 98% Calm Calm -- 29.71 in1006.1 mb - 0.00 in0.0 mm 0.03 in0.8 mm
05:40 AM 54.3°F12.4°C 53.8°F12.1°C 98% Calm Calm -- 29.68 in1005.1 mb - 0.00 in0.0 mm 0.03 in0.8 mm
05:30 AM 54.3°F12.4°C 53.8°F12.1°C 98% 0.4 mph SE0.6 kmh SE 1.2 mph1.9 kmh 29.68 in1005.1 mb - 0.00 in0.0 mm 0.03 in0.8 mm
05:20 AM 54.3°F12.4°C 53.8°F12.1°C 98% Calm Calm -- 29.68 in1005.1 mb - 0.00 in0.0 mm 0.03 in0.8 mm
05:10 AM 54.3°F12.4°C 53.8°F12.1°C 98% Calm Calm -- 29.68 in1005.1 mb - 0.02 in0.5 mm 0.03 in0.8 mm
05:00 AM 54.3°F12.4°C 53.8°F12.1°C 98% Calm Calm -- 29.68 in1005.1 mb - 0.00 in0.0 mm 0.02 in0.5 mm
04:50 AM 54.5°F12.5°C 53.9°F12.2°C 98% Calm Calm -- 29.68 in1005.1 mb - 0.00 in0.0 mm 0.02 in0.5 mm
04:40 AM 54.5°F12.5°C 53.9°F12.2°C 98% 1.0 mph WSW1.6 kmh WSW 2.6 mph4.2 kmh 29.71 in1006.1 mb - 0.00 in0.0 mm 0.02 in0.5 mm
04:30 AM 54.5°F12.5°C 53.9°F12.2°C 98% 1.4 mph W2.3 kmh W 4.3 mph6.9 kmh 29.71 in1006.1 mb - 0.00 in0.0 mm 0.02 in0.5 mm
04:20 AM 54.5°F12.5°C 53.9°F12.2°C 98% Calm Calm -- 29.68 in1005.1 mb - 0.00 in0.0 mm 0.02 in0.5 mm
04:10 AM 54.5°F12.5°C 53.9°F12.2°C 98% Calm Calm -- 29.68 in1005.1 mb - 0.00 in0.0 mm 0.02 in0.5 mm
04:00 AM 54.7°F12.6°C 54.1°F12.3°C 98% Calm Calm 3.6 mph5.8 kmh 29.68 in1005.1 mb - 0.00 in0.0 mm 0.02 in0.5 mm
03:50 AM 54.7°F12.6°C 54.1°F12.3°C 98% 0.6 mph SSW1.0 kmh SSW 1.6 mph2.6 kmh 29.65 in1004.1 mb - 0.00 in0.0 mm 0.02 in0.5 mm
03:40 AM 54.9°F12.7°C 54.3°F12.4°C 98% 3.8 mph W6.1 kmh W 6.2 mph10.0 kmh 29.68 in1005.1 mb - 0.02 in0.5 mm 0.02 in0.5 mm
03:30 AM 55.0°F12.8°C 54.5°F12.5°C 98% Calm Calm -- 29.68 in1005.1 mb - 0.00 in0.0 mm 0.00 in0.0 mm
03:20 AM 55.0°F12.8°C 54.5°F12.5°C 98% 0.9 mph S1.4 kmh S 3.6 mph5.8 kmh 29.68 in1005.1 mb - 0.00 in0.0 mm 0.00 in0.0 mm
03:10 AM 55.2°F12.9°C 54.7°F12.6°C 98% Calm Calm -- 29.71 in1006.1 mb - 0.00 in0.0 mm 0.00 in0.0 mm
03:00 AM 55.4°F13.0°C 54.8°F12.7°C 98% 0.4 mph SSW0.6 kmh SSW -- 29.71 in1006.1 mb - 0.00 in0.0 mm 0.00 in0.0 mm
02:50 AM 55.6°F13.1°C 55.0°F12.8°C 98% Calm Calm -- 29.68 in1005.1 mb - 0.00 in0.0 mm 0.00 in0.0 mm
02:40 AM 55.8°F13.2°C 55.2°F12.9°C 98% Calm Calm -- 29.68 in1005.1 mb - 0.00 in0.0 mm 0.00 in0.0 mm
02:30 AM 56.1°F13.4°C 55.6°F13.1°C 98% 4.4 mph W7.1 kmh W 5.4 mph8.7 kmh 29.68 in1005.1 mb - 0.00 in0.0 mm 0.00 in0.0 mm
02:20 AM 56.5°F13.6°C 55.9°F13.3°C 98% 1.3 mph W2.1 kmh W 5.6 mph9.0 kmh 29.71 in1006.1 mb - 0.00 in0.0 mm 0.00 in0.0 mm
02:10 AM 56.7°F13.7°C 56.1°F13.4°C 98% 2.2 mph SW3.5 kmh SW 2.9 mph4.7 kmh 29.71 in1006.1 mb - 0.00 in0.0 mm 0.00 in0.0 mm
02:00 AM 56.8°F13.8°C 56.3°F13.5°C 98% 2.2 mph SW3.5 kmh SW 4.7 mph7.6 kmh 29.71 in1006.1 mb - 0.00 in0.0 mm 0.00 in0.0 mm
01:50 AM 57.0°F13.9°C 56.5°F13.6°C 98% 3.1 mph SSW5.0 kmh SSW 3.8 mph6.1 kmh 29.68 in1005.1 mb - 0.00 in0.0 mm 0.00 in0.0 mm
01:40 AM 57.2°F14.0°C 56.6°F13.7°C 98% 3.1 mph SW5.0 kmh SW 4.0 mph6.4 kmh 29.71 in1006.1 mb - 0.00 in0.0 mm 0.00 in0.0 mm
01:30 AM 57.4°F14.1°C 56.8°F13.8°C 98% 2.6 mph W4.2 kmh W 4.3 mph6.9 kmh 29.71 in1006.1 mb - 0.00 in0.0 mm 0.00 in0.0 mm
01:20 AM 57.7°F14.3°C 57.2°F14.0°C 98% 2.4 mph SW3.9 kmh SW 5.4 mph8.7 kmh 29.65 in1004.1 mb - 0.00 in0.0 mm 0.00 in0.0 mm
01:10 AM 57.9°F14.4°C 57.4°F14.1°C 98% 3.1 mph S5.0 kmh S 6.2 mph10.0 kmh 29.68 in1005.1 mb - 0.00 in0.0 mm 0.00 in0.0 mm
01:00 AM 58.1°F14.5°C 57.5°F14.2°C 98% 2.8 mph S4.5 kmh S 3.3 mph5.3 kmh 29.68 in1005.1 mb - 0.00 in0.0 mm 0.00 in0.0 mm
12:50 AM 58.1°F14.5°C 57.5°F14.2°C 98% 1.5 mph SW2.4 kmh SW 4.5 mph7.2 kmh 29.65 in1004.1 mb - 0.00 in0.0 mm 0.00 in0.0 mm
12:40 AM 58.1°F14.5°C 57.5°F14.2°C 98% 2.9 mph SSW4.7 kmh SSW 4.0 mph6.4 kmh 29.68 in1005.1 mb - 0.00 in0.0 mm 0.00 in0.0 mm
12:30 AM 57.7°F14.3°C 57.2°F14.0°C 98% 2.4 mph S3.9 kmh S 2.9 mph4.7 kmh 29.68 in1005.1 mb - 0.00 in0.0 mm 0.00 in0.0 mm
12:20 AM 57.7°F14.3°C 57.2°F14.0°C 98% 1.5 mph S2.4 kmh S 2.6 mph4.2 kmh 29.68 in1005.1 mb - 0.00 in0.0 mm 0.00 in0.0 mm
12:10 AM 57.6°F14.2°C 57.0°F13.9°C 98% 2.1 mph SSE3.4 kmh SSE 4.3 mph6.9 kmh 29.71 in1006.1 mb - 0.00 in0.0 mm 0.00 in0.0 mm
12:00 AM 57.6°F14.2°C 57.0°F13.9°C 98% 2.0 mph S3.2 kmh S 3.8 mph6.1 kmh 29.71 in1006.1 mb - 0.00 in0.0 mm 0.00 in0.0 mm